sensor_id;sensor_type;location;lat;lon;timestamp;P1;durP1;ratioP1;P2;durP2;ratioP2
26620;SDS011;14253;44.840;10.444;2023-08-30T00:00:17;1.83;;;0.60;;
26620;SDS011;14253;44.840;10.444;2023-08-30T00:02:44;2.10;;;0.63;;
26620;SDS011;14253;44.840;10.444;2023-08-30T00:05:10;2.05;;;0.70;;
26620;SDS011;14253;44.840;10.444;2023-08-30T00:07:36;1.65;;;0.70;;
26620;SDS011;14253;44.840;10.444;2023-08-30T00:10:02;2.53;;;0.70;;
26620;SDS011;14253;44.840;10.444;2023-08-30T00:12:29;2.17;;;0.90;;
26620;SDS011;14253;44.840;10.444;2023-08-30T00:14:55;2.53;;;0.63;;
26620;SDS011;14253;44.840;10.444;2023-08-30T00:17:21;5.20;;;0.68;;
26620;SDS011;14253;44.840;10.444;2023-08-30T00:19:48;0.88;;;0.60;;
26620;SDS011;14253;44.840;10.444;2023-08-30T00:22:14;4.22;;;0.85;;
26620;SDS011;14253;44.840;10.444;2023-08-30T00:24:40;1.95;;;0.75;;
26620;SDS011;14253;44.840;10.444;2023-08-30T00:27:06;2.30;;;0.80;;
26620;SDS011;14253;44.840;10.444;2023-08-30T00:29:32;4.00;;;0.57;;
26620;SDS011;14253;44.840;10.444;2023-08-30T00:31:59;2.45;;;0.60;;
26620;SDS011;14253;44.840;10.444;2023-08-30T00:34:25;1.55;;;0.80;;
26620;SDS011;14253;44.840;10.444;2023-08-30T00:36:51;2.83;;;1.05;;
26620;SDS011;14253;44.840;10.444;2023-08-30T00:39:17;1.92;;;0.70;;
26620;SDS011;14253;44.840;10.444;2023-08-30T00:41:43;6.82;;;1.35;;
26620;SDS011;14253;44.840;10.444;2023-08-30T00:44:09;2.30;;;0.95;;
26620;SDS011;14253;44.840;10.444;2023-08-30T00:46:35;2.05;;;0.93;;
26620;SDS011;14253;44.840;10.444;2023-08-30T00:49:04;5.32;;;1.63;;
26620;SDS011;14253;44.840;10.444;2023-08-30T00:51:31;4.88;;;1.10;;
26620;SDS011;14253;44.840;10.444;2023-08-30T00:53:58;3.30;;;1.45;;
26620;SDS011;14253;44.840;10.444;2023-08-30T00:56:26;2.40;;;1.50;;
26620;SDS011;14253;44.840;10.444;2023-08-30T00:58:53;2.72;;;1.27;;
26620;SDS011;14253;44.840;10.444;2023-08-30T01:01:20;2.58;;;1.15;;
26620;SDS011;14253;44.840;10.444;2023-08-30T01:03:47;2.20;;;1.13;;
26620;SDS011;14253;44.840;10.444;2023-08-30T01:06:13;1.83;;;1.40;;
26620;SDS011;14253;44.840;10.444;2023-08-30T01:08:40;1.92;;;1.10;;
26620;SDS011;14253;44.840;10.444;2023-08-30T01:13:40;2.85;;;1.23;;
26620;SDS011;14253;44.840;10.444;2023-08-30T01:16:11;1.88;;;1.17;;
26620;SDS011;14253;44.840;10.444;2023-08-30T01:18:37;3.75;;;1.08;;
26620;SDS011;14253;44.840;10.444;2023-08-30T01:21:05;1.23;;;1.00;;
26620;SDS011;14253;44.840;10.444;2023-08-30T01:23:47;2.65;;;1.38;;
26620;SDS011;14253;44.840;10.444;2023-08-30T01:26:26;4.25;;;0.73;;
26620;SDS011;14253;44.840;10.444;2023-08-30T01:29:20;3.83;;;1.52;;
26620;SDS011;14253;44.840;10.444;2023-08-30T01:31:47;2.70;;;1.50;;
26620;SDS011;14253;44.840;10.444;2023-08-30T01:34:14;2.58;;;1.20;;
26620;SDS011;14253;44.840;10.444;2023-08-30T01:36:41;4.03;;;1.13;;
26620;SDS011;14253;44.840;10.444;2023-08-30T01:39:10;4.30;;;1.15;;
26620;SDS011;14253;44.840;10.444;2023-08-30T01:41:38;4.53;;;1.35;;
26620;SDS011;14253;44.840;10.444;2023-08-30T01:44:07;4.45;;;1.50;;
26620;SDS011;14253;44.840;10.444;2023-08-30T01:46:35;7.80;;;1.70;;
26620;SDS011;14253;44.840;10.444;2023-08-30T01:49:02;5.38;;;1.67;;
26620;SDS011;14253;44.840;10.444;2023-08-30T01:51:29;3.38;;;1.55;;
26620;SDS011;14253;44.840;10.444;2023-08-30T01:53:56;5.07;;;1.60;;
26620;SDS011;14253;44.840;10.444;2023-08-30T01:56:23;2.38;;;1.40;;
26620;SDS011;14253;44.840;10.444;2023-08-30T01:58:49;3.40;;;1.63;;
26620;SDS011;14253;44.840;10.444;2023-08-30T02:01:15;3.67;;;1.73;;
26620;SDS011;14253;44.840;10.444;2023-08-30T02:03:44;5.05;;;1.80;;
26620;SDS011;14253;44.840;10.444;2023-08-30T02:11:59;3.35;;;1.45;;
26620;SDS011;14253;44.840;10.444;2023-08-30T02:14:30;4.22;;;1.40;;
26620;SDS011;14253;44.840;10.444;2023-08-30T02:16:58;6.13;;;2.38;;
26620;SDS011;14253;44.840;10.444;2023-08-30T02:19:24;2.42;;;1.42;;
26620;SDS011;14253;44.840;10.444;2023-08-30T02:21:50;1.98;;;1.25;;
26620;SDS011;14253;44.840;10.444;2023-08-30T02:24:17;3.88;;;1.73;;
26620;SDS011;14253;44.840;10.444;2023-08-30T02:26:43;5.30;;;2.08;;
26620;SDS011;14253;44.840;10.444;2023-08-30T02:29:09;4.70;;;1.70;;
26620;SDS011;14253;44.840;10.444;2023-08-30T02:31:36;2.72;;;1.45;;
26620;SDS011;14253;44.840;10.444;2023-08-30T02:34:02;5.15;;;1.58;;
26620;SDS011;14253;44.840;10.444;2023-08-30T02:36:29;2.42;;;1.70;;
26620;SDS011;14253;44.840;10.444;2023-08-30T02:38:55;4.38;;;1.30;;
26620;SDS011;14253;44.840;10.444;2023-08-30T02:41:21;4.35;;;2.10;;
26620;SDS011;14253;44.840;10.444;2023-08-30T02:43:48;2.55;;;1.30;;
26620;SDS011;14253;44.840;10.444;2023-08-30T02:46:14;3.80;;;1.48;;
26620;SDS011;14253;44.840;10.444;2023-08-30T02:48:40;2.83;;;1.77;;
26620;SDS011;14253;44.840;10.444;2023-08-30T02:51:07;2.45;;;1.52;;
26620;SDS011;14253;44.840;10.444;2023-08-30T02:53:32;2.92;;;1.65;;
26620;SDS011;14253;44.840;10.444;2023-08-30T02:55:58;5.30;;;1.40;;
26620;SDS011;14253;44.840;10.444;2023-08-30T02:58:24;1.73;;;1.33;;
26620;SDS011;14253;44.840;10.444;2023-08-30T03:00:56;4.03;;;1.77;;
26620;SDS011;14253;44.840;10.444;2023-08-30T03:03:22;2.55;;;2.10;;
26620;SDS011;14253;44.840;10.444;2023-08-30T03:05:48;3.63;;;1.80;;
26620;SDS011;14253;44.840;10.444;2023-08-30T03:08:14;4.18;;;1.58;;
26620;SDS011;14253;44.840;10.444;2023-08-30T03:10:40;3.40;;;1.90;;
26620;SDS011;14253;44.840;10.444;2023-08-30T03:13:07;3.92;;;2.03;;
26620;SDS011;14253;44.840;10.444;2023-08-30T03:15:33;4.53;;;2.35;;
26620;SDS011;14253;44.840;10.444;2023-08-30T03:17:59;7.10;;;2.25;;
26620;SDS011;14253;44.840;10.444;2023-08-30T03:20:26;3.40;;;1.90;;
26620;SDS011;14253;44.840;10.444;2023-08-30T03:22:55;2.42;;;1.70;;
26620;SDS011;14253;44.840;10.444;2023-08-30T03:25:22;4.93;;;2.00;;
26620;SDS011;14253;44.840;10.444;2023-08-30T03:27:49;3.55;;;1.70;;
26620;SDS011;14253;44.840;10.444;2023-08-30T03:30:15;3.33;;;1.90;;
26620;SDS011;14253;44.840;10.444;2023-08-30T03:32:41;3.08;;;1.80;;
26620;SDS011;14253;44.840;10.444;2023-08-30T03:35:07;4.43;;;2.08;;
26620;SDS011;14253;44.840;10.444;2023-08-30T03:37:34;2.60;;;1.50;;
26620;SDS011;14253;44.840;10.444;2023-08-30T03:40:00;5.40;;;1.70;;
26620;SDS011;14253;44.840;10.444;2023-08-30T03:42:27;2.97;;;1.95;;
26620;SDS011;14253;44.840;10.444;2023-08-30T03:44:52;3.63;;;1.60;;
26620;SDS011;14253;44.840;10.444;2023-08-30T03:47:18;2.35;;;1.52;;
26620;SDS011;14253;44.840;10.444;2023-08-30T03:49:44;3.03;;;1.90;;
26620;SDS011;14253;44.840;10.444;2023-08-30T03:52:12;6.47;;;1.95;;
26620;SDS011;14253;44.840;10.444;2023-08-30T03:54:38;8.15;;;1.75;;
26620;SDS011;14253;44.840;10.444;2023-08-30T03:57:04;2.65;;;1.80;;
26620;SDS011;14253;44.840;10.444;2023-08-30T03:59:30;4.70;;;2.25;;
26620;SDS011;14253;44.840;10.444;2023-08-30T04:01:56;3.38;;;1.80;;
26620;SDS011;14253;44.840;10.444;2023-08-30T04:04:22;3.60;;;1.67;;
26620;SDS011;14253;44.840;10.444;2023-08-30T04:06:49;4.43;;;2.03;;
26620;SDS011;14253;44.840;10.444;2023-08-30T04:09:15;2.65;;;2.30;;
26620;SDS011;14253;44.840;10.444;2023-08-30T04:11:41;2.72;;;2.00;;
26620;SDS011;14253;44.840;10.444;2023-08-30T04:14:07;7.95;;;2.60;;
26620;SDS011;14253;44.840;10.444;2023-08-30T04:16:34;5.82;;;2.05;;
26620;SDS011;14253;44.840;10.444;2023-08-30T04:19:00;6.20;;;1.95;;
26620;SDS011;14253;44.840;10.444;2023-08-30T04:21:26;6.85;;;2.75;;
26620;SDS011;14253;44.840;10.444;2023-08-30T04:23:52;7.03;;;2.42;;
26620;SDS011;14253;44.840;10.444;2023-08-30T04:26:18;5.18;;;2.30;;
26620;SDS011;14253;44.840;10.444;2023-08-30T04:28:44;4.20;;;2.17;;
26620;SDS011;14253;44.840;10.444;2023-08-30T04:31:10;3.15;;;2.30;;
26620;SDS011;14253;44.840;10.444;2023-08-30T04:33:36;4.72;;;2.70;;
26620;SDS011;14253;44.840;10.444;2023-08-30T04:36:03;4.97;;;2.20;;
26620;SDS011;14253;44.840;10.444;2023-08-30T04:38:29;7.97;;;2.42;;
26620;SDS011;14253;44.840;10.444;2023-08-30T04:40:57;5.82;;;2.28;;
26620;SDS011;14253;44.840;10.444;2023-08-30T04:43:24;7.35;;;2.80;;
26620;SDS011;14253;44.840;10.444;2023-08-30T04:45:50;3.75;;;2.00;;
26620;SDS011;14253;44.840;10.444;2023-08-30T04:48:16;3.47;;;2.45;;
26620;SDS011;14253;44.840;10.444;2023-08-30T04:50:43;4.20;;;2.55;;
26620;SDS011;14253;44.840;10.444;2023-08-30T04:53:09;4.10;;;2.88;;
26620;SDS011;14253;44.840;10.444;2023-08-30T04:55:34;3.45;;;2.35;;
26620;SDS011;14253;44.840;10.444;2023-08-30T04:58:01;5.35;;;2.40;;
26620;SDS011;14253;44.840;10.444;2023-08-30T05:02:59;4.53;;;2.50;;
26620;SDS011;14253;44.840;10.444;2023-08-30T05:05:26;8.70;;;2.97;;
26620;SDS011;14253;44.840;10.444;2023-08-30T05:07:52;2.67;;;2.47;;
26620;SDS011;14253;44.840;10.444;2023-08-30T05:10:18;3.25;;;2.38;;
26620;SDS011;14253;44.840;10.444;2023-08-30T05:12:44;5.20;;;2.40;;
26620;SDS011;14253;44.840;10.444;2023-08-30T05:15:14;4.75;;;2.40;;
26620;SDS011;14253;44.840;10.444;2023-08-30T05:17:41;2.50;;;2.30;;
26620;SDS011;14253;44.840;10.444;2023-08-30T05:20:07;5.68;;;2.70;;
26620;SDS011;14253;44.840;10.444;2023-08-30T05:22:33;2.83;;;2.42;;
26620;SDS011;14253;44.840;10.444;2023-08-30T05:24:59;3.50;;;2.05;;
26620;SDS011;14253;44.840;10.444;2023-08-30T05:27:26;7.53;;;2.53;;
26620;SDS011;14253;44.840;10.444;2023-08-30T05:29:52;3.63;;;2.20;;
26620;SDS011;14253;44.840;10.444;2023-08-30T05:32:21;3.45;;;2.08;;
26620;SDS011;14253;44.840;10.444;2023-08-30T05:35:19;4.28;;;2.70;;
26620;SDS011;14253;44.840;10.444;2023-08-30T05:38:14;3.38;;;2.00;;
26620;SDS011;14253;44.840;10.444;2023-08-30T05:41:00;2.90;;;2.33;;
26620;SDS011;14253;44.840;10.444;2023-08-30T05:43:27;5.97;;;2.70;;
26620;SDS011;14253;44.840;10.444;2023-08-30T05:45:53;5.50;;;2.92;;
26620;SDS011;14253;44.840;10.444;2023-08-30T05:48:20;5.18;;;2.40;;
26620;SDS011;14253;44.840;10.444;2023-08-30T05:50:46;3.30;;;2.13;;
26620;SDS011;14253;44.840;10.444;2023-08-30T05:53:12;7.18;;;2.63;;
26620;SDS011;14253;44.840;10.444;2023-08-30T05:55:39;9.18;;;2.25;;
26620;SDS011;14253;44.840;10.444;2023-08-30T05:58:09;5.22;;;2.70;;
26620;SDS011;14253;44.840;10.444;2023-08-30T06:00:36;4.45;;;2.28;;
26620;SDS011;14253;44.840;10.444;2023-08-30T06:03:01;7.82;;;2.40;;
26620;SDS011;14253;44.840;10.444;2023-08-30T06:05:28;5.38;;;2.58;;
26620;SDS011;14253;44.840;10.444;2023-08-30T06:07:54;7.93;;;2.72;;
26620;SDS011;14253;44.840;10.444;2023-08-30T06:10:20;4.13;;;2.08;;
26620;SDS011;14253;44.840;10.444;2023-08-30T06:12:46;10.60;;;2.53;;
26620;SDS011;14253;44.840;10.444;2023-08-30T06:15:12;5.90;;;2.70;;
26620;SDS011;14253;44.840;10.444;2023-08-30T06:17:37;5.72;;;2.05;;
26620;SDS011;14253;44.840;10.444;2023-08-30T06:20:04;4.65;;;2.22;;
26620;SDS011;14253;44.840;10.444;2023-08-30T06:22:30;7.45;;;2.13;;
26620;SDS011;14253;44.840;10.444;2023-08-30T06:24:56;5.78;;;1.95;;
26620;SDS011;14253;44.840;10.444;2023-08-30T06:27:23;5.18;;;2.10;;
26620;SDS011;14253;44.840;10.444;2023-08-30T06:29:49;3.53;;;1.88;;
26620;SDS011;14253;44.840;10.444;2023-08-30T06:32:16;5.05;;;1.80;;
26620;SDS011;14253;44.840;10.444;2023-08-30T06:34:42;6.20;;;1.90;;
26620;SDS011;14253;44.840;10.444;2023-08-30T06:37:08;5.15;;;2.38;;
26620;SDS011;14253;44.840;10.444;2023-08-30T06:39:34;6.10;;;2.17;;
26620;SDS011;14253;44.840;10.444;2023-08-30T06:42:02;4.53;;;1.90;;
26620;SDS011;14253;44.840;10.444;2023-08-30T06:44:28;6.97;;;1.65;;
26620;SDS011;14253;44.840;10.444;2023-08-30T06:46:58;5.50;;;2.00;;
26620;SDS011;14253;44.840;10.444;2023-08-30T06:49:24;2.90;;;1.77;;
26620;SDS011;14253;44.840;10.444;2023-08-30T06:51:52;6.15;;;2.00;;
26620;SDS011;14253;44.840;10.444;2023-08-30T06:54:18;4.63;;;2.40;;
26620;SDS011;14253;44.840;10.444;2023-08-30T06:56:57;5.70;;;2.08;;
26620;SDS011;14253;44.840;10.444;2023-08-30T06:59:24;3.65;;;2.17;;
26620;SDS011;14253;44.840;10.444;2023-08-30T07:01:50;4.80;;;2.45;;
26620;SDS011;14253;44.840;10.444;2023-08-30T07:04:16;6.65;;;2.33;;
26620;SDS011;14253;44.840;10.444;2023-08-30T07:06:42;4.35;;;2.70;;
26620;SDS011;14253;44.840;10.444;2023-08-30T07:09:08;4.68;;;2.50;;
26620;SDS011;14253;44.840;10.444;2023-08-30T07:11:34;6.20;;;2.35;;
26620;SDS011;14253;44.840;10.444;2023-08-30T07:14:00;5.95;;;2.38;;
26620;SDS011;14253;44.840;10.444;2023-08-30T07:16:26;4.22;;;2.30;;
26620;SDS011;14253;44.840;10.444;2023-08-30T07:18:52;4.32;;;1.98;;
26620;SDS011;14253;44.840;10.444;2023-08-30T07:21:18;6.78;;;3.15;;
26620;SDS011;14253;44.840;10.444;2023-08-30T07:23:44;7.50;;;2.70;;
26620;SDS011;14253;44.840;10.444;2023-08-30T07:26:10;4.93;;;2.67;;
26620;SDS011;14253;44.840;10.444;2023-08-30T07:28:36;3.17;;;2.15;;
26620;SDS011;14253;44.840;10.444;2023-08-30T07:31:04;4.88;;;2.25;;
26620;SDS011;14253;44.840;10.444;2023-08-30T07:33:31;3.28;;;2.13;;
26620;SDS011;14253;44.840;10.444;2023-08-30T07:35:58;3.72;;;2.30;;
26620;SDS011;14253;44.840;10.444;2023-08-30T07:38:24;3.25;;;1.98;;
26620;SDS011;14253;44.840;10.444;2023-08-30T07:40:50;2.60;;;2.00;;
26620;SDS011;14253;44.840;10.444;2023-08-30T07:43:16;4.60;;;2.15;;
26620;SDS011;14253;44.840;10.444;2023-08-30T07:45:43;5.85;;;2.30;;
26620;SDS011;14253;44.840;10.444;2023-08-30T07:48:09;5.45;;;2.00;;
26620;SDS011;14253;44.840;10.444;2023-08-30T07:50:35;2.70;;;1.95;;
26620;SDS011;14253;44.840;10.444;2023-08-30T07:53:01;5.35;;;2.08;;
26620;SDS011;14253;44.840;10.444;2023-08-30T07:55:28;12.40;;;2.30;;
26620;SDS011;14253;44.840;10.444;2023-08-30T07:57:53;3.17;;;1.60;;
26620;SDS011;14253;44.840;10.444;2023-08-30T08:00:19;2.47;;;1.45;;
26620;SDS011;14253;44.840;10.444;2023-08-30T08:02:45;6.90;;;1.50;;
26620;SDS011;14253;44.840;10.444;2023-08-30T08:05:11;3.53;;;1.30;;
26620;SDS011;14253;44.840;10.444;2023-08-30T08:07:38;3.65;;;1.45;;
26620;SDS011;14253;44.840;10.444;2023-08-30T08:10:06;5.18;;;2.00;;
26620;SDS011;14253;44.840;10.444;2023-08-30T08:12:35;2.42;;;1.48;;
26620;SDS011;14253;44.840;10.444;2023-08-30T08:15:01;3.72;;;1.85;;
26620;SDS011;14253;44.840;10.444;2023-08-30T08:17:28;2.67;;;1.20;;
26620;SDS011;14253;44.840;10.444;2023-08-30T08:19:54;4.65;;;1.80;;
26620;SDS011;14253;44.840;10.444;2023-08-30T08:22:20;4.25;;;1.33;;
26620;SDS011;14253;44.840;10.444;2023-08-30T08:24:48;4.85;;;1.40;;
26620;SDS011;14253;44.840;10.444;2023-08-30T08:27:17;5.93;;;1.58;;
26620;SDS011;14253;44.840;10.444;2023-08-30T08:29:42;3.45;;;1.30;;
26620;SDS011;14253;44.840;10.444;2023-08-30T08:32:08;4.78;;;1.33;;
26620;SDS011;14253;44.840;10.444;2023-08-30T08:34:34;4.85;;;1.08;;
26620;SDS011;14253;44.840;10.444;2023-08-30T08:37:00;5.30;;;1.10;;
26620;SDS011;14253;44.840;10.444;2023-08-30T08:39:26;2.85;;;1.17;;
26620;SDS011;14253;44.840;10.444;2023-08-30T08:41:52;3.80;;;1.30;;
26620;SDS011;14253;44.840;10.444;2023-08-30T08:44:19;2.10;;;0.82;;
26620;SDS011;14253;44.840;10.444;2023-08-30T08:46:48;3.22;;;0.90;;
26620;SDS011;14253;44.840;10.444;2023-08-30T08:49:15;4.07;;;1.02;;
26620;SDS011;14253;44.840;10.444;2023-08-30T08:51:42;3.17;;;0.90;;
26620;SDS011;14253;44.840;10.444;2023-08-30T08:54:10;6.85;;;1.48;;
26620;SDS011;14253;44.840;10.444;2023-08-30T08:56:37;3.75;;;0.73;;
26620;SDS011;14253;44.840;10.444;2023-08-30T08:59:04;3.67;;;0.93;;
26620;SDS011;14253;44.840;10.444;2023-08-30T09:01:32;2.78;;;0.80;;
26620;SDS011;14253;44.840;10.444;2023-08-30T09:04:08;1.50;;;0.80;;
26620;SDS011;14253;44.840;10.444;2023-08-30T09:06:35;5.13;;;0.90;;
26620;SDS011;14253;44.840;10.444;2023-08-30T09:09:02;1.40;;;0.90;;
26620;SDS011;14253;44.840;10.444;2023-08-30T09:11:30;1.75;;;0.88;;
26620;SDS011;14253;44.840;10.444;2023-08-30T09:13:56;1.00;;;0.63;;
26620;SDS011;14253;44.840;10.444;2023-08-30T09:16:22;1.90;;;0.57;;
26620;SDS011;14253;44.840;10.444;2023-08-30T09:21:24;3.60;;;1.20;;
26620;SDS011;14253;44.840;10.444;2023-08-30T09:24:03;2.10;;;1.00;;
26620;SDS011;14253;44.840;10.444;2023-08-30T09:26:31;6.22;;;1.35;;
26620;SDS011;14253;44.840;10.444;2023-08-30T09:29:03;3.70;;;1.33;;
26620;SDS011;14253;44.840;10.444;2023-08-30T09:31:37;3.55;;;1.27;;
26620;SDS011;14253;44.840;10.444;2023-08-30T09:34:05;2.47;;;1.10;;
26620;SDS011;14253;44.840;10.444;2023-08-30T09:36:35;3.65;;;1.38;;
26620;SDS011;14253;44.840;10.444;2023-08-30T09:39:09;3.25;;;1.30;;
26620;SDS011;14253;44.840;10.444;2023-08-30T09:41:40;1.33;;;0.93;;
26620;SDS011;14253;44.840;10.444;2023-08-30T09:44:09;3.08;;;1.20;;
26620;SDS011;14253;44.840;10.444;2023-08-30T09:46:43;2.50;;;1.50;;
26620;SDS011;14253;44.840;10.444;2023-08-30T09:49:14;1.80;;;1.27;;
26620;SDS011;14253;44.840;10.444;2023-08-30T09:51:43;2.63;;;1.10;;
26620;SDS011;14253;44.840;10.444;2023-08-30T09:54:15;2.65;;;0.70;;
26620;SDS011;14253;44.840;10.444;2023-08-30T09:56:43;3.13;;;0.50;;
26620;SDS011;14253;44.840;10.444;2023-08-30T09:59:12;1.35;;;0.60;;
26620;SDS011;14253;44.840;10.444;2023-08-30T10:01:41;1.90;;;0.70;;
26620;SDS011;14253;44.840;10.444;2023-08-30T10:06:38;1.08;;;0.20;;
26620;SDS011;14253;44.840;10.444;2023-08-30T10:09:04;1.27;;;0.40;;
26620;SDS011;14253;44.840;10.444;2023-08-30T10:11:33;0.85;;;0.38;;
26620;SDS011;14253;44.840;10.444;2023-08-30T10:14:04;0.90;;;0.30;;
26620;SDS011;14253;44.840;10.444;2023-08-30T10:16:41;0.90;;;0.40;;
26620;SDS011;14253;44.840;10.444;2023-08-30T10:19:11;2.17;;;0.52;;
26620;SDS011;14253;44.840;10.444;2023-08-30T10:24:37;2.25;;;0.30;;
26620;SDS011;14253;44.840;10.444;2023-08-30T10:27:06;0.57;;;0.25;;
26620;SDS011;14253;44.840;10.444;2023-08-30T10:29:35;0.52;;;0.30;;
26620;SDS011;14253;44.840;10.444;2023-08-30T10:32:04;1.60;;;0.60;;
26620;SDS011;14253;44.840;10.444;2023-08-30T10:34:34;0.82;;;0.50;;
26620;SDS011;14253;44.840;10.444;2023-08-30T10:37:01;1.70;;;0.60;;
26620;SDS011;14253;44.840;10.444;2023-08-30T10:39:38;1.10;;;0.60;;
26620;SDS011;14253;44.840;10.444;2023-08-30T10:42:14;1.65;;;0.60;;
26620;SDS011;14253;44.840;10.444;2023-08-30T10:44:48;1.50;;;0.60;;
26620;SDS011;14253;44.840;10.444;2023-08-30T10:47:57;2.55;;;0.50;;
26620;SDS011;14253;44.840;10.444;2023-08-30T10:50:09;4.13;;;0.80;;
26620;SDS011;14253;44.840;10.444;2023-08-30T10:52:36;1.98;;;0.77;;
26620;SDS011;14253;44.840;10.444;2023-08-30T10:57:36;2.63;;;0.63;;
26620;SDS011;14253;44.840;10.444;2023-08-30T11:00:07;2.57;;;0.50;;
26620;SDS011;14253;44.840;10.444;2023-08-30T11:02:34;1.70;;;0.50;;
26620;SDS011;14253;44.840;10.444;2023-08-30T11:05:02;2.55;;;0.70;;
26620;SDS011;14253;44.840;10.444;2023-08-30T11:07:31;3.13;;;0.75;;
26620;SDS011;14253;44.840;10.444;2023-08-30T11:09:57;0.50;;;0.35;;
26620;SDS011;14253;44.840;10.444;2023-08-30T11:12:23;3.10;;;0.90;;
26620;SDS011;14253;44.840;10.444;2023-08-30T11:14:55;6.82;;;1.38;;
26620;SDS011;14253;44.840;10.444;2023-08-30T11:17:21;1.50;;;0.57;;
26620;SDS011;14253;44.840;10.444;2023-08-30T11:20:09;3.65;;;0.82;;
26620;SDS011;14253;44.840;10.444;2023-08-30T11:22:53;0.90;;;0.40;;
26620;SDS011;14253;44.840;10.444;2023-08-30T11:25:31;2.10;;;0.55;;
26620;SDS011;14253;44.840;10.444;2023-08-30T11:28:20;1.42;;;0.45;;
26620;SDS011;14253;44.840;10.444;2023-08-30T11:30:47;2.92;;;0.60;;
26620;SDS011;14253;44.840;10.444;2023-08-30T11:33:16;1.25;;;0.45;;
26620;SDS011;14253;44.840;10.444;2023-08-30T11:35:43;0.87;;;0.40;;
26620;SDS011;14253;44.840;10.444;2023-08-30T11:38:09;1.90;;;0.47;;
26620;SDS011;14253;44.840;10.444;2023-08-30T11:40:36;1.05;;;0.32;;
26620;SDS011;14253;44.840;10.444;2023-08-30T11:43:06;1.63;;;0.68;;
26620;SDS011;14253;44.840;10.444;2023-08-30T11:45:32;3.30;;;0.50;;
26620;SDS011;14253;44.840;10.444;2023-08-30T11:48:00;1.27;;;0.50;;
26620;SDS011;14253;44.840;10.444;2023-08-30T11:50:26;2.40;;;0.50;;
26620;SDS011;14253;44.840;10.444;2023-08-30T11:52:52;0.70;;;0.30;;
26620;SDS011;14253;44.840;10.444;2023-08-30T11:55:20;2.22;;;0.30;;
26620;SDS011;14253;44.840;10.444;2023-08-30T11:57:50;1.85;;;0.20;;
26620;SDS011;14253;44.840;10.444;2023-08-30T12:00:18;0.53;;;0.20;;
26620;SDS011;14253;44.840;10.444;2023-08-30T12:02:45;2.78;;;0.22;;
26620;SDS011;14253;44.840;10.444;2023-08-30T12:05:15;2.00;;;0.40;;
26620;SDS011;14253;44.840;10.444;2023-08-30T12:07:41;2.72;;;0.30;;
26620;SDS011;14253;44.840;10.444;2023-08-30T12:10:07;1.92;;;0.38;;
26620;SDS011;14253;44.840;10.444;2023-08-30T12:12:37;0.60;;;0.30;;
26620;SDS011;14253;44.840;10.444;2023-08-30T12:15:12;1.58;;;0.52;;
26620;SDS011;14253;44.840;10.444;2023-08-30T12:17:40;0.50;;;0.20;;
26620;SDS011;14253;44.840;10.444;2023-08-30T12:20:06;2.70;;;0.28;;
26620;SDS011;14253;44.840;10.444;2023-08-30T12:22:39;0.35;;;0.13;;
26620;SDS011;14253;44.840;10.444;2023-08-30T12:25:26;2.55;;;0.20;;
26620;SDS011;14253;44.840;10.444;2023-08-30T12:27:52;1.80;;;0.10;;
26620;SDS011;14253;44.840;10.444;2023-08-30T12:30:18;0.50;;;0.22;;
26620;SDS011;14253;44.840;10.444;2023-08-30T12:32:47;2.72;;;0.30;;
26620;SDS011;14253;44.840;10.444;2023-08-30T12:35:14;0.40;;;0.30;;
26620;SDS011;14253;44.840;10.444;2023-08-30T12:37:40;2.13;;;0.35;;
26620;SDS011;14253;44.840;10.444;2023-08-30T12:40:07;0.80;;;0.30;;
26620;SDS011;14253;44.840;10.444;2023-08-30T12:42:33;0.68;;;0.35;;
26620;SDS011;14253;44.840;10.444;2023-08-30T12:44:59;1.23;;;0.20;;
26620;SDS011;14253;44.840;10.444;2023-08-30T12:47:26;0.50;;;0.20;;
26620;SDS011;14253;44.840;10.444;2023-08-30T12:49:52;0.47;;;0.22;;
26620;SDS011;14253;44.840;10.444;2023-08-30T12:52:17;1.02;;;0.20;;
26620;SDS011;14253;44.840;10.444;2023-08-30T12:54:43;0.20;;;0.13;;
26620;SDS011;14253;44.840;10.444;2023-08-30T12:57:09;0.35;;;0.20;;
26620;SDS011;14253;44.840;10.444;2023-08-30T12:59:36;1.00;;;0.20;;
26620;SDS011;14253;44.840;10.444;2023-08-30T13:02:02;0.82;;;0.30;;
26620;SDS011;14253;44.840;10.444;2023-08-30T13:04:28;0.60;;;0.20;;
26620;SDS011;14253;44.840;10.444;2023-08-30T13:06:54;0.50;;;0.20;;
26620;SDS011;14253;44.840;10.444;2023-08-30T13:09:20;2.25;;;0.20;;
26620;SDS011;14253;44.840;10.444;2023-08-30T13:11:46;0.38;;;0.20;;
26620;SDS011;14253;44.840;10.444;2023-08-30T13:14:12;2.80;;;0.30;;
26620;SDS011;14253;44.840;10.444;2023-08-30T13:16:37;0.57;;;0.28;;
26620;SDS011;14253;44.840;10.444;2023-08-30T13:19:03;3.92;;;0.30;;
26620;SDS011;14253;44.840;10.444;2023-08-30T13:21:29;0.73;;;0.10;;
26620;SDS011;14253;44.840;10.444;2023-08-30T13:23:55;0.17;;;0.10;;
26620;SDS011;14253;44.840;10.444;2023-08-30T13:26:21;1.35;;;0.20;;
26620;SDS011;14253;44.840;10.444;2023-08-30T13:28:48;9.73;;;0.45;;
26620;SDS011;14253;44.840;10.444;2023-08-30T13:31:14;0.50;;;0.10;;
26620;SDS011;14253;44.840;10.444;2023-08-30T13:33:40;0.75;;;0.20;;
26620;SDS011;14253;44.840;10.444;2023-08-30T13:36:06;1.77;;;0.40;;
26620;SDS011;14253;44.840;10.444;2023-08-30T13:38:32;0.52;;;0.20;;
26620;SDS011;14253;44.840;10.444;2023-08-30T13:40:58;1.60;;;0.30;;
26620;SDS011;14253;44.840;10.444;2023-08-30T13:43:25;0.30;;;0.10;;
26620;SDS011;14253;44.840;10.444;2023-08-30T13:45:57;2.75;;;0.25;;
26620;SDS011;14253;44.840;10.444;2023-08-30T13:48:24;0.82;;;0.30;;
26620;SDS011;14253;44.840;10.444;2023-08-30T13:50:50;0.20;;;0.10;;
26620;SDS011;14253;44.840;10.444;2023-08-30T13:53:16;1.58;;;0.40;;
26620;SDS011;14253;44.840;10.444;2023-08-30T13:55:46;0.25;;;0.10;;
26620;SDS011;14253;44.840;10.444;2023-08-30T13:58:14;2.13;;;0.40;;
26620;SDS011;14253;44.840;10.444;2023-08-30T14:00:40;0.40;;;0.20;;
26620;SDS011;14253;44.840;10.444;2023-08-30T14:03:06;0.25;;;0.10;;
26620;SDS011;14253;44.840;10.444;2023-08-30T14:05:33;2.90;;;0.20;;
26620;SDS011;14253;44.840;10.444;2023-08-30T14:07:59;0.20;;;0.10;;
26620;SDS011;14253;44.840;10.444;2023-08-30T14:10:25;2.28;;;0.20;;
26620;SDS011;14253;44.840;10.444;2023-08-30T14:12:51;1.75;;;0.10;;
26620;SDS011;14253;44.840;10.444;2023-08-30T14:15:17;0.68;;;0.25;;
26620;SDS011;14253;44.840;10.444;2023-08-30T14:17:43;0.32;;;0.15;;
26620;SDS011;14253;44.840;10.444;2023-08-30T14:20:09;0.57;;;0.17;;
26620;SDS011;14253;44.840;10.444;2023-08-30T14:22:35;1.85;;;0.30;;
26620;SDS011;14253;44.840;10.444;2023-08-30T14:25:01;3.83;;;0.43;;
26620;SDS011;14253;44.840;10.444;2023-08-30T14:27:28;2.40;;;0.30;;
26620;SDS011;14253;44.840;10.444;2023-08-30T14:29:54;0.40;;;0.30;;
26620;SDS011;14253;44.840;10.444;2023-08-30T14:32:20;1.73;;;0.35;;
26620;SDS011;14253;44.840;10.444;2023-08-30T14:34:46;0.47;;;0.15;;
26620;SDS011;14253;44.840;10.444;2023-08-30T14:37:11;2.22;;;0.30;;
26620;SDS011;14253;44.840;10.444;2023-08-30T14:39:37;0.57;;;0.20;;
26620;SDS011;14253;44.840;10.444;2023-08-30T14:42:03;0.80;;;0.28;;
26620;SDS011;14253;44.840;10.444;2023-08-30T14:44:29;0.52;;;0.30;;
26620;SDS011;14253;44.840;10.444;2023-08-30T14:46:55;0.75;;;0.17;;
26620;SDS011;14253;44.840;10.444;2023-08-30T14:49:21;0.50;;;0.25;;
26620;SDS011;14253;44.840;10.444;2023-08-30T14:51:47;0.73;;;0.32;;
26620;SDS011;14253;44.840;10.444;2023-08-30T14:54:13;1.58;;;0.10;;
26620;SDS011;14253;44.840;10.444;2023-08-30T14:56:39;0.28;;;0.10;;